Time;durP1;ratioP1;P1;durP2;ratioP2;P2;SDS_P1;SDS_P2;PMS_P1;PMS_P2;Temp;Humidity;BMP_temperature;BMP_pressure;BME280_temperature;BME280_humidity;BME280_pressure;Samples;Min_cycle;Max_cycle;Signal;HPM_P1;HPM_P2
2022/03/14 00:00:19;;;;;;;20.58;14.05;;;;;;;11.92;37.73;101111.06;687879;28;1355;-87
2022/03/14 00:00:42;;;;;;;22.77;14.68;;;;;;;12.02;37.85;101121.78;690761;28;1374;-87
2022/03/14 00:01:06;;;;;;;23.70;14.85;;;;;;;11.92;37.67;101112.78;693164;28;1189;-87
2022/03/14 00:01:27;;;;;;;24.98;15.02;;;;;;;11.95;37.73;101118.09;693612;28;1783;-87
2022/03/14 00:01:47;;;;;;;25.60;14.80;;;;;;;11.95;37.61;101114.59;690467;28;1220;-86
2022/03/14 00:02:08;;;;;;;24.90;14.90;;;;;;;11.96;37.73;101127.72;695905;28;1704;-87
2022/03/14 00:02:28;;;;;;;22.53;14.33;;;;;;;11.91;37.79;101113.63;691612;28;1232;-87
2022/03/14 00:02:49;;;;;;;19.92;13.52;;;;;;;11.92;37.66;101120.63;693202;28;1267;-87
2022/03/14 00:03:14;;;;;;;19.90;13.70;;;;;;;11.93;37.79;101122.41;693043;28;1169;-87
2022/03/14 00:03:53;;;;;;;20.17;14.52;;;;;;;11.93;37.69;101122.41;693467;28;1405;-87
2022/03/14 00:04:13;;;;;;;21.08;14.48;;;;;;;11.93;37.92;101120.66;693310;28;1271;-87
2022/03/14 00:04:37;;;;;;;22.25;14.15;;;;;;;11.86;37.80;101108.25;690794;28;1312;-87
2022/03/14 00:04:58;;;;;;;22.20;14.10;;;;;;;11.90;37.54;101120.59;693697;28;1638;-87
2022/03/14 00:05:19;;;;;;;23.48;14.52;;;;;;;11.89;38.07;101115.31;693372;28;1238;-86
2022/03/14 00:05:40;;;;;;;23.00;14.60;;;;;;;11.85;38.15;101118.69;688988;28;1159;-87
2022/03/14 00:06:01;;;;;;;23.02;14.82;;;;;;;11.82;38.17;101113.38;689650;28;1197;-87
2022/03/14 00:06:22;;;;;;;21.15;14.38;;;;;;;11.82;38.56;101115.97;694947;28;1664;-87
2022/03/14 00:06:44;;;;;;;21.25;14.57;;;;;;;11.91;38.72;101137.16;693166;28;1198;-87
2022/03/14 00:07:05;;;;;;;21.10;14.60;;;;;;;11.83;38.58;101129.09;685581;28;1338;-85
2022/03/14 00:07:38;;;;;;;20.45;14.35;;;;;;;11.83;38.71;101128.22;692637;28;1248;-87
2022/03/14 00:08:00;;;;;;;22.63;13.63;;;;;;;11.79;38.45;101114.16;692068;28;1405;-87
2022/03/14 00:08:23;;;;;;;22.15;13.80;;;;;;;11.86;38.76;101131.78;693222;28;1305;-87
2022/03/14 00:08:45;;;;;;;22.55;14.27;;;;;;;11.82;38.80;101124.72;693515;28;1183;-87
2022/03/14 00:09:07;;;;;;;20.27;14.43;;;;;;;11.82;38.99;101121.22;693439;28;1187;-87
2022/03/14 00:09:27;;;;;;;21.90;14.55;;;;;;;11.90;38.79;101133.66;690823;28;1441;-87
2022/03/14 00:09:48;;;;;;;23.65;14.88;;;;;;;11.85;38.91;101126.56;690709;28;1753;-87
2022/03/14 00:10:10;;;;;;;24.70;14.90;;;;;;;11.87;38.93;101127.47;693834;28;1020;-87
2022/03/14 00:10:31;;;;;;;23.17;15.30;;;;;;;11.89;39.16;101128.38;693854;28;1595;-87
2022/03/14 00:10:52;;;;;;;22.30;15.15;;;;;;;11.83;39.07;101120.38;693835;28;1658;-87
2022/03/14 00:11:17;;;;;;;21.40;14.40;;;;;;;11.91;39.23;101129.31;691096;28;1328;-86
2022/03/14 00:11:38;;;;;;;20.05;13.50;;;;;;;11.89;39.16;101117.94;688366;28;1370;-87
2022/03/14 00:11:58;;;;;;;19.03;12.97;;;;;;;11.88;39.06;101124.91;696118;28;1590;-87
2022/03/14 00:12:23;;;;;;;19.70;13.45;;;;;;;11.88;39.02;101122.28;692969;28;1220;-86
2022/03/14 00:12:48;;;;;;;21.83;14.25;;;;;;;11.95;38.82;101138.13;693278;28;1263;-86
2022/03/14 00:13:09;;;;;;;22.65;15.07;;;;;;;11.91;39.12;101122.38;696158;28;1257;-87
2022/03/14 00:13:33;;;;;;;21.73;14.65;;;;;;;11.95;39.45;101136.41;693574;28;1485;-87
2022/03/14 00:13:56;;;;;;;20.48;14.20;;;;;;;11.97;39.45;101133.84;690511;28;1282;-87
2022/03/14 00:14:18;;;;;;;21.10;14.43;;;;;;;11.99;39.53;101135.66;692461;28;1268;-87
2022/03/14 00:14:38;;;;;;;21.98;15.00;;;;;;;11.91;39.44;101124.09;688314;28;1979;-86
2022/03/14 00:14:59;;;;;;;22.30;14.80;;;;;;;11.87;39.50;101117.00;689598;28;1265;-87
2022/03/14 00:15:20;;;;;;;20.35;14.02;;;;;;;11.96;39.44;101132.06;688062;28;1284;-87
2022/03/14 00:15:41;;;;;;;19.83;13.73;;;;;;;11.92;39.38;101123.22;693774;28;1269;-87
2022/03/14 00:16:03;;;;;;;20.67;13.75;;;;;;;11.95;39.56;101128.56;691184;28;1245;-87
2022/03/14 00:16:24;;;;;;;21.50;14.15;;;;;;;11.92;39.56;101134.59;693489;28;1444;-86
2022/03/14 00:16:45;;;;;;;20.90;14.38;;;;;;;11.93;39.35;101122.41;696355;28;1199;-86
2022/03/14 00:17:08;;;;;;;21.15;14.63;;;;;;;11.91;39.28;101130.22;690795;28;1313;-86
2022/03/14 00:17:29;;;;;;;22.30;14.55;;;;;;;11.91;39.58;101130.22;693784;28;1206;-87
2022/03/14 00:17:52;;;;;;;22.90;14.32;;;;;;;11.93;39.61;101123.28;693587;28;1163;-88
2022/03/14 00:18:13;;;;;;;22.05;14.15;;;;;;;11.86;39.29;101112.63;688049;28;1337;-87
2022/03/14 00:18:34;;;;;;;21.83;14.88;;;;;;;11.87;39.68;101117.00;693386;28;1310;-86
2022/03/14 00:18:56;;;;;;;21.98;14.52;;;;;;;11.88;39.81;101113.53;692979;28;1554;-86
2022/03/14 00:19:20;;;;;;;20.70;13.82;;;;;;;11.95;39.40;101131.19;690816;28;1907;-87
2022/03/14 00:19:40;;;;;;;20.13;13.27;;;;;;;11.95;39.67;101133.81;688328;28;1507;-87
2022/03/14 00:20:04;;;;;;;20.23;13.32;;;;;;;11.92;39.53;101115.38;694361;28;1340;-87
2022/03/14 00:20:24;;;;;;;20.55;13.75;;;;;;;11.91;39.50;101121.47;690066;28;1642;-87
2022/03/14 00:20:45;;;;;;;23.13;14.20;;;;;;;11.96;39.72;101126.81;693451;28;1272;-86
2022/03/14 00:21:06;;;;;;;22.73;14.20;;;;;;;11.95;39.84;101125.06;693074;28;1242;-87
2022/03/14 00:21:29;;;;;;;23.50;14.25;;;;;;;11.93;39.63;101127.66;690660;28;846;-87
2022/03/14 00:21:50;;;;;;;21.30;13.95;;;;;;;11.94;39.58;101132.03;690500;28;897;-86
2022/03/14 00:22:15;;;;;;;21.13;13.90;;;;;;;11.90;39.73;101123.22;696008;28;1269;-87
2022/03/14 00:22:37;;;;;;;19.15;13.40;;;;;;;11.94;39.60;101137.25;696099;28;1367;-87
2022/03/14 00:22:59;;;;;;;21.10;14.02;;;;;;;11.93;39.44;101135.50;694652;28;1273;-87
2022/03/14 00:23:19;;;;;;;21.05;14.00;;;;;;;11.98;39.58;101141.72;690587;28;1248;-87
2022/03/14 00:23:41;;;;;;;20.10;13.98;;;;;;;11.90;39.42;101138.00;692622;28;1220;-87
2022/03/14 00:24:02;;;;;;;20.37;13.40;;;;;;;11.96;39.57;101138.19;695954;28;1428;-87
2022/03/14 00:24:22;;;;;;;20.10;14.05;;;;;;;11.94;39.53;101145.09;692994;28;1341;-86
2022/03/14 00:24:43;;;;;;;21.38;14.52;;;;;;;11.94;39.47;101145.09;687821;28;1360;-86
2022/03/14 00:25:05;;;;;;;20.37;15.03;;;;;;;11.91;39.83;101131.94;690576;28;1230;-86
2022/03/14 00:25:26;;;;;;;22.95;15.30;;;;;;;11.88;39.58;101129.25;690454;28;1321;-86
2022/03/14 00:25:48;;;;;;;23.33;15.05;;;;;;;11.85;39.84;101129.16;687854;28;1207;-88
2022/03/14 00:26:08;;;;;;;24.73;15.20;;;;;;;11.94;39.79;101139.88;690128;28;1357;-87
2022/03/14 00:26:29;;;;;;;23.35;14.82;;;;;;;11.89;39.77;101136.25;690671;28;1188;-86
2022/03/14 00:26:51;;;;;;;22.55;14.30;;;;;;;11.94;40.01;101142.50;690153;28;1820;-87
2022/03/14 00:27:12;;;;;;;21.25;14.18;;;;;;;11.90;40.01;101138.91;693343;28;1207;-87
2022/03/14 00:27:36;;;;;;;22.87;14.53;;;;;;;11.99;40.08;101153.94;690776;28;1132;-86
2022/03/14 00:27:57;;;;;;;22.10;14.73;;;;;;;11.95;39.88;101144.25;693303;28;1298;-86
2022/03/14 00:28:18;;;;;;;21.77;14.02;;;;;;;11.90;40.11;101138.00;696141;28;1250;-86
2022/03/14 00:28:38;;;;;;;21.17;13.70;;;;;;;11.89;40.04;101137.13;690687;28;1231;-87
2022/03/14 00:28:59;;;;;;;22.40;13.87;;;;;;;11.95;39.88;101141.66;693152;28;1764;-86
2022/03/14 00:29:20;;;;;;;23.70;15.00;;;;;;;11.96;39.50;101143.41;693126;28;1402;-87
2022/03/14 00:29:43;;;;;;;24.58;15.32;;;;;;;11.92;39.61;101131.09;692391;28;1222;-87
2022/03/14 00:30:06;;;;;;;23.52;15.40;;;;;;;12.02;39.54;101147.94;695390;28;1359;-86
2022/03/14 00:30:27;;;;;;;22.05;15.57;;;;;;;11.98;39.74;101140.84;693303;28;1429;-89
2022/03/14 00:30:48;;;;;;;21.65;15.68;;;;;;;11.93;39.64;101132.88;687920;28;1267;-87
2022/03/14 00:31:09;;;;;;;23.63;15.83;;;;;;;12.03;39.82;101158.44;690575;28;1163;-87
2022/03/14 00:31:30;;;;;;;22.23;15.07;;;;;;;11.93;39.78;101138.09;690279;28;1370;-87
2022/03/14 00:31:50;;;;;;;22.50;14.88;;;;;;;11.97;39.71;101142.56;693156;28;1299;-87
2022/03/14 00:32:11;;;;;;;19.70;14.00;;;;;;;12.00;39.19;101147.00;693345;28;1136;-87
2022/03/14 00:32:32;;;;;;;22.45;14.52;;;;;;;12.00;39.20;101145.28;688292;28;1320;-86
2022/03/14 00:32:52;;;;;;;24.00;14.80;;;;;;;12.04;39.19;101141.91;690125;28;1172;-87
2022/03/14 00:33:14;;;;;;;25.42;15.48;;;;;;;12.05;39.32;101145.41;687927;28;1311;-87
2022/03/14 00:33:36;;;;;;;23.08;15.27;;;;;;;12.10;39.33;101161.25;691323;28;1370;-87
2022/03/14 00:33:57;;;;;;;21.88;14.80;;;;;;;12.10;39.13;101150.78;690607;28;1290;-87
2022/03/14 00:34:18;;;;;;;21.45;14.75;;;;;;;12.09;39.25;101141.16;690609;28;1502;-87
2022/03/14 00:34:38;;;;;;;20.73;14.65;;;;;;;12.10;39.14;101141.19;693333;28;1898;-87
2022/03/14 00:34:59;;;;;;;21.43;15.10;;;;;;;12.06;39.19;101145.44;688203;28;1129;-86
2022/03/14 00:35:21;;;;;;;21.27;14.60;;;;;;;12.06;39.00;101140.19;690630;28;1188;-87
2022/03/14 00:35:41;;;;;;;21.73;14.82;;;;;;;12.06;39.08;101145.44;690946;28;1276;-87
2022/03/14 00:36:02;;;;;;;22.27;15.35;;;;;;;12.06;38.95;101145.44;693395;28;1292;-86
2022/03/14 00:36:25;;;;;;;22.20;15.73;;;;;;;12.04;38.77;101138.41;692462;28;1277;-86
2022/03/14 00:36:45;;;;;;;22.55;15.68;;;;;;;12.01;39.01;101138.31;696036;28;1303;-87
2022/03/14 00:37:06;;;;;;;21.90;15.33;;;;;;;11.99;39.06;101125.19;696726;28;1699;-86
2022/03/14 00:37:26;;;;;;;24.02;16.00;;;;;;;12.06;38.95;101140.19;694151;28;1140;-87
2022/03/14 00:37:47;;;;;;;23.17;15.77;;;;;;;12.02;39.14;101133.13;690393;28;1733;-86
2022/03/14 00:38:07;;;;;;;24.67;16.05;;;;;;;12.12;39.12;101144.75;688061;28;1290;-87
2022/03/14 00:38:29;;;;;;;25.10;15.50;;;;;;;12.06;39.08;101131.50;690574;28;1408;-87
2022/03/14 00:38:50;;;;;;;25.08;14.90;;;;;;;12.15;39.01;101144.81;690532;28;1271;-86
2022/03/14 00:39:10;;;;;;;23.63;14.88;;;;;;;12.09;39.11;101139.41;693193;28;1367;-86
2022/03/14 00:39:31;;;;;;;21.77;14.63;;;;;;;12.07;39.16;101134.13;692898;28;1256;-87
2022/03/14 00:39:53;;;;;;;22.98;15.30;;;;;;;12.14;38.98;101142.16;690803;28;1407;-86
2022/03/14 00:40:14;;;;;;;21.80;14.82;;;;;;;12.13;39.09;101132.53;687913;28;1370;-87
2022/03/14 00:40:42;;;;;;;19.05;14.30;;;;;;;12.18;39.05;101144.88;690722;28;1273;-87
2022/03/14 00:41:03;;;;;;;19.83;14.38;;;;;;;12.10;39.22;101124.63;693250;28;1345;-87
2022/03/14 00:41:24;;;;;;;20.98;14.75;;;;;;;12.13;39.16;101135.16;693279;28;1193;-86
2022/03/14 00:41:45;;;;;;;19.93;14.07;;;;;;;12.21;39.24;101151.94;693219;28;1211;-86
2022/03/14 00:42:05;;;;;;;22.23;14.13;;;;;;;12.19;39.11;101145.78;687403;28;1263;-87
2022/03/14 00:42:26;;;;;;;23.25;14.27;;;;;;;12.15;39.59;101138.69;694431;28;1579;-86
2022/03/14 00:42:48;;;;;;;25.30;14.68;;;;;;;12.20;39.02;101144.94;695926;28;1213;-86
2022/03/14 00:43:09;;;;;;;21.58;14.45;;;;;;;12.14;39.17;101137.81;689644;28;1286;-87
2022/03/14 00:43:31;;;;;;;22.70;14.77;;;;;;;12.18;39.27;101139.66;693484;28;1311;-87
2022/03/14 00:43:51;;;;;;;22.05;15.00;;;;;;;12.14;39.49;101139.53;689816;28;1359;-86
2022/03/14 00:44:15;;;;;;;22.85;14.90;;;;;;;12.12;39.43;101133.38;687644;28;1236;-86
2022/03/14 00:44:36;;;;;;;20.23;14.00;;;;;;;12.13;39.35;101140.38;690585;28;1359;-87
2022/03/14 00:44:56;;;;;;;20.48;13.45;;;;;;;12.13;39.29;101145.63;693023;28;1297;-86
2022/03/14 00:45:18;;;;;;;19.83;13.20;;;;;;;12.13;39.43;101145.63;690209;28;1272;-86
2022/03/14 00:45:38;;;;;;;21.90;13.23;;;;;;;12.17;39.41;101157.94;685260;28;1425;-87
2022/03/14 00:45:59;;;;;;;22.67;13.37;;;;;;;12.05;39.19;101138.44;692017;28;1285;-87
2022/03/14 00:46:19;;;;;;;21.75;13.55;;;;;;;12.04;39.16;101136.66;688796;28;1310;-87
2022/03/14 00:46:41;;;;;;;20.88;14.20;;;;;;;12.02;39.41;101133.13;693395;28;1180;-87
2022/03/14 00:47:02;;;;;;;20.40;14.18;;;;;;;12.04;39.26;101136.66;695049;28;1399;-87
2022/03/14 00:47:23;;;;;;;21.20;14.27;;;;;;;12.10;39.31;101151.63;693136;28;1558;-85
2022/03/14 00:47:43;;;;;;;19.55;13.88;;;;;;;12.01;39.45;101136.59;693091;28;1259;-86
2022/03/14 00:48:05;;;;;;;19.17;14.20;;;;;;;12.07;39.64;101152.44;690200;28;1436;-87
2022/03/14 00:48:26;;;;;;;20.02;14.05;;;;;;;12.02;39.64;101133.13;695651;28;1308;-86
2022/03/14 00:48:47;;;;;;;20.98;14.30;;;;;;;11.99;39.44;101135.66;693232;28;1241;-86
2022/03/14 00:49:08;;;;;;;20.90;14.00;;;;;;;12.03;39.46;101142.75;690529;28;1287;-86
2022/03/14 00:49:28;;;;;;;21.10;14.60;;;;;;;12.02;39.56;101140.06;690808;28;1236;-87
2022/03/14 00:49:49;;;;;;;21.25;14.52;;;;;;;12.00;39.38;101140.06;695556;28;1194;-86
2022/03/14 00:50:10;;;;;;;21.02;14.70;;;;;;;12.00;39.36;101140.06;693042;28;2045;-87
2022/03/14 00:50:31;;;;;;;20.70;14.35;;;;;;;11.98;39.56;101139.09;690535;28;1479;-87
2022/03/14 00:50:52;;;;;;;20.98;14.52;;;;;;;12.02;39.56;101140.97;693156;28;1348;-87
2022/03/14 00:51:13;;;;;;;21.35;14.75;;;;;;;12.00;39.55;101145.28;694320;28;1238;-87
2022/03/14 00:51:34;;;;;;;20.25;14.50;;;;;;;11.95;39.70;101136.41;690492;28;1291;-86
2022/03/14 00:51:55;;;;;;;20.92;14.02;;;;;;;12.00;39.70;101149.63;691480;28;1124;-87
2022/03/14 00:52:18;;;;;;;20.35;13.63;;;;;;;12.01;39.79;101152.28;698517;28;1315;-86
2022/03/14 00:52:44;;;;;;;21.48;13.40;;;;;;;12.00;39.49;101150.53;693365;28;1385;-87
2022/03/14 00:53:04;;;;;;;20.15;13.52;;;;;;;11.98;39.35;101149.56;692803;28;1199;-87
2022/03/14 00:53:25;;;;;;;19.40;13.03;;;;;;;11.92;39.61;101136.31;693045;28;1186;-86
2022/03/14 00:53:45;;;;;;;18.10;12.27;;;;;;;11.91;39.73;101135.44;690422;28;1196;-87
2022/03/14 00:54:06;;;;;;;17.93;12.07;;;;;;;11.94;39.65;101145.09;689286;28;1865;-86
2022/03/14 00:54:28;;;;;;;17.70;12.63;;;;;;;11.98;39.35;101146.09;691185;28;1285;-86
2022/03/14 00:54:48;;;;;;;19.00;12.93;;;;;;;11.98;39.25;101148.69;692852;28;1950;-86
2022/03/14 00:55:09;;;;;;;19.63;13.23;;;;;;;11.93;39.63;101144.22;693147;28;1544;-87
2022/03/14 00:55:30;;;;;;;19.90;13.40;;;;;;;11.98;39.66;101151.31;690394;28;1410;-87
2022/03/14 00:55:50;;;;;;;19.35;13.95;;;;;;;11.97;39.50;101155.66;692872;28;1202;-86
2022/03/14 00:56:12;;;;;;;19.25;13.80;;;;;;;11.95;39.50;101149.50;692887;28;1199;-86
2022/03/14 00:56:33;;;;;;;19.15;13.63;;;;;;;11.91;39.54;101150.22;693371;28;1453;-87
2022/03/14 00:56:53;;;;;;;19.90;13.53;;;;;;;11.90;39.69;101145.84;693096;28;1633;-86
2022/03/14 00:57:15;;;;;;;18.80;13.05;;;;;;;11.88;39.54;101144.94;690502;28;1191;-87
2022/03/14 00:57:35;;;;;;;19.25;13.20;;;;;;;11.89;39.59;101149.31;696183;28;1252;-86
2022/03/14 00:58:07;;;;;;;21.08;13.43;;;;;;;11.91;39.38;101152.84;690465;28;1285;-87
2022/03/14 00:58:29;;;;;;;21.35;13.80;;;;;;;11.88;39.35;101147.53;695931;28;1334;-87
2022/03/14 00:58:50;;;;;;;19.45;13.90;;;;;;;11.90;39.62;101153.69;696417;28;1221;-86
2022/03/14 00:59:14;;;;;;;19.55;14.30;;;;;;;11.87;39.69;101141.41;693641;28;1299;-86
2022/03/14 00:59:34;;;;;;;18.60;13.75;;;;;;;11.89;39.26;101150.22;693193;28;1250;-86
2022/03/14 00:59:55;;;;;;;19.80;14.00;;;;;;;11.88;39.65;101135.38;695760;28;1271;-86
2022/03/14 01:00:16;;;;;;;21.65;14.80;;;;;;;11.92;39.60;101152.00;689889;28;1350;-86
2022/03/14 01:00:36;;;;;;;24.10;15.45;;;;;;;11.86;39.57;101144.00;690287;28;1198;-87
2022/03/14 01:00:57;;;;;;;23.90;15.50;;;;;;;11.85;39.64;101137.00;697233;28;1173;-87
2022/03/14 01:01:17;;;;;;;21.75;14.60;;;;;;;11.93;39.96;101153.81;693138;28;1357;-87
2022/03/14 01:01:38;;;;;;;22.13;14.93;;;;;;;11.89;39.57;101146.69;690422;28;1212;-86
2022/03/14 01:01:58;;;;;;;21.97;14.83;;;;;;;11.95;39.64;101162.56;689396;28;1196;-87
2022/03/14 01:02:21;;;;;;;22.50;14.93;;;;;;;11.87;39.97;101143.16;695989;28;1089;-87
2022/03/14 01:02:41;;;;;;;20.77;14.13;;;;;;;11.87;39.94;101144.03;695704;28;1582;-87
2022/03/14 01:03:02;;;;;;;20.80;14.30;;;;;;;11.92;39.97;101146.78;695838;28;1192;-87
2022/03/14 01:03:22;;;;;;;20.77;14.43;;;;;;;11.91;39.67;101150.22;690518;28;1216;-86
2022/03/14 01:03:43;;;;;;;21.83;14.57;;;;;;;11.88;39.99;101147.53;690544;28;1250;-86
2022/03/14 01:04:03;;;;;;;20.80;13.85;;;;;;;11.88;39.75;101147.53;695224;28;1425;-87
2022/03/14 01:04:24;;;;;;;18.43;13.43;;;;;;;11.93;40.00;101149.44;693188;28;1260;-87
2022/03/14 01:04:45;;;;;;;18.35;13.55;;;;;;;11.98;40.12;101153.94;690316;28;1298;-86
2022/03/14 01:05:05;;;;;;;21.80;15.03;;;;;;;11.95;39.88;101146.88;690299;28;1235;-87
2022/03/14 01:05:27;;;;;;;24.10;16.08;;;;;;;11.90;39.96;101143.22;690613;28;1325;-86
2022/03/14 01:05:48;;;;;;;24.65;17.20;;;;;;;11.99;40.02;101158.31;693101;28;1342;-86
2022/03/14 01:06:08;;;;;;;23.70;16.87;;;;;;;11.98;39.81;101160.03;690456;28;1258;-87
2022/03/14 01:06:29;;;;;;;23.55;16.27;;;;;;;11.99;39.73;101159.19;693084;28;1215;-87
2022/03/14 01:06:49;;;;;;;25.05;16.52;;;;;;;11.97;39.75;101154.78;693180;28;1185;-87
2022/03/14 01:07:10;;;;;;;23.97;16.47;;;;;;;11.94;39.78;101150.34;695750;28;1284;-87
2022/03/14 01:07:34;;;;;;;23.77;16.73;;;;;;;11.92;39.93;101147.66;693389;28;1182;-87
2022/03/14 01:07:56;;;;;;;22.08;15.68;;;;;;;11.95;40.10;101152.09;692783;28;1347;-87
2022/03/14 01:08:16;;;;;;;23.08;15.35;;;;;;;11.95;40.04;101152.09;693433;28;1219;-87
2022/03/14 01:08:37;;;;;;;22.30;15.00;;;;;;;11.94;39.95;101150.34;698776;28;1260;-86
2022/03/14 01:08:58;;;;;;;22.83;15.33;;;;;;;11.98;40.01;101161.78;697223;28;1317;-87
2022/03/14 01:09:19;;;;;;;21.40;15.13;;;;;;;12.05;39.90;101174.19;695888;28;1269;-86
2022/03/14 01:09:39;;;;;;;22.38;15.82;;;;;;;11.95;39.92;101152.09;690251;28;1117;-87
2022/03/14 01:10:03;;;;;;;22.70;15.82;;;;;;;12.02;39.73;101164.53;693772;28;1214;-86
2022/03/14 01:10:23;;;;;;;23.42;16.20;;;;;;;11.97;39.66;101154.78;699184;28;1386;-86
2022/03/14 01:10:44;;;;;;;24.05;16.13;;;;;;;11.99;39.59;101164.41;691076;28;1197;-86
2022/03/14 01:11:05;;;;;;;23.73;15.90;;;;;;;11.95;39.74;101157.34;696336;28;1396;-86
2022/03/14 01:11:26;;;;;;;25.30;16.20;;;;;;;11.94;39.63;101155.56;691196;28;1252;-86
2022/03/14 01:11:46;;;;;;;24.52;16.05;;;;;;;11.98;39.76;101157.41;693055;28;1705;-86
2022/03/14 01:12:08;;;;;;;25.58;16.63;;;;;;;11.98;39.54;101167.88;693575;28;1502;-87
2022/03/14 01:12:29;;;;;;;23.17;15.80;;;;;;;11.96;39.75;101160.81;688714;28;1367;-86
2022/03/14 01:12:50;;;;;;;22.60;15.20;;;;;;;11.96;39.59;101166.97;691200;28;1653;-87
2022/03/14 01:13:11;;;;;;;22.35;15.05;;;;;;;11.95;39.65;101159.97;690653;28;1388;-86
2022/03/14 01:13:32;;;;;;;23.17;15.50;;;;;;;11.97;39.61;101166.09;691238;28;1425;-86
2022/03/14 01:13:55;;;;;;;21.67;15.43;;;;;;;11.95;39.75;101167.81;691961;28;1608;-87
2022/03/14 01:14:16;;;;;;;21.00;14.60;;;;;;;11.98;39.54;101172.25;692926;28;1836;-87
2022/03/14 01:14:37;;;;;;;21.02;14.88;;;;;;;11.87;39.79;101151.88;693825;28;1445;-86
2022/03/14 01:14:57;;;;;;;23.30;15.75;;;;;;;11.92;39.85;101162.47;693618;28;1914;-87
2022/03/14 01:15:18;;;;;;;23.85;16.40;;;;;;;11.98;40.01;101167.88;693670;28;1123;-86
2022/03/14 01:15:39;;;;;;;25.43;16.33;;;;;;;11.90;39.84;101157.22;689150;28;1164;-87
2022/03/14 01:15:59;;;;;;;24.27;16.20;;;;;;;11.90;39.83;101158.94;692668;28;1363;-86
2022/03/14 01:16:20;;;;;;;23.17;16.08;;;;;;;11.95;39.71;101165.19;693728;28;1302;-86
2022/03/14 01:16:41;;;;;;;21.30;15.80;;;;;;;11.97;39.89;101160.88;696591;28;1714;-86
2022/03/14 01:17:01;;;;;;;22.80;15.60;;;;;;;11.94;39.77;101163.41;697349;28;1190;-86
2022/03/14 01:17:22;;;;;;;23.07;15.37;;;;;;;11.97;39.66;101167.84;693187;28;1194;-87
2022/03/14 01:17:42;;;;;;;23.87;15.50;;;;;;;11.93;39.62;101164.25;693649;28;1203;-86
2022/03/14 01:18:05;;;;;;;23.00;15.98;;;;;;;11.93;39.89;101169.50;690437;28;1264;-87
2022/03/14 01:18:26;;;;;;;23.42;16.02;;;;;;;11.89;39.70;101162.38;690989;28;1273;-87
2022/03/14 01:18:46;;;;;;;22.83;15.75;;;;;;;11.96;40.02;101169.56;694654;28;1243;-87
2022/03/14 01:19:11;;;;;;;22.02;15.10;;;;;;;12.00;40.07;101176.69;695930;28;1502;-87
2022/03/14 01:19:32;;;;;;;21.85;15.50;;;;;;;12.00;39.97;101179.28;693331;28;1281;-86
2022/03/14 01:19:53;;;;;;;23.08;16.00;;;;;;;11.91;39.98;101165.91;696284;28;1587;-87
2022/03/14 01:20:13;;;;;;;24.02;15.88;;;;;;;11.97;39.98;101171.34;699095;28;1296;-86
2022/03/14 01:20:34;;;;;;;23.90;15.73;;;;;;;11.98;39.77;101180.97;691146;28;1175;-86
2022/03/14 01:20:55;;;;;;;22.75;15.10;;;;;;;11.95;39.96;101174.75;691798;28;1389;-87
2022/03/14 01:21:15;;;;;;;22.53;15.90;;;;;;;11.99;39.76;101180.09;693664;28;1212;-87
2022/03/14 01:21:38;;;;;;;22.08;15.70;;;;;;;11.99;40.18;101180.09;693859;28;1239;-86
2022/03/14 01:21:58;;;;;;;22.85;16.40;;;;;;;11.95;39.87;101167.81;692236;28;1327;-87
2022/03/14 01:22:20;;;;;;;24.87;16.20;;;;;;;11.99;40.43;101168.78;691001;28;1204;-86
2022/03/14 01:22:41;;;;;;;26.90;16.77;;;;;;;11.95;40.50;101170.41;690993;28;1442;-87
2022/03/14 01:23:01;;;;;;;26.33;16.55;;;;;;;11.94;40.40;101166.03;695668;28;1122;-87
2022/03/14 01:23:22;;;;;;;23.93;16.17;;;;;;;11.97;40.45;101168.72;690995;28;1108;-87
2022/03/14 01:23:43;;;;;;;21.42;15.50;;;;;;;12.00;40.82;101171.44;690022;28;1213;-86
2022/03/14 01:24:04;;;;;;;22.00;15.50;;;;;;;11.98;40.73;101173.09;698181;28;1243;-86
2022/03/14 01:24:24;;;;;;;22.10;15.48;;;;;;;11.97;40.86;101170.47;695922;28;1222;-87
2022/03/14 01:24:46;;;;;;;24.80;15.82;;;;;;;12.00;41.16;101181.91;692775;28;1327;-86
2022/03/14 01:25:07;;;;;;;24.40;15.40;;;;;;;11.99;41.22;101174.88;693525;28;1238;-86
2022/03/14 01:25:27;;;;;;;24.95;15.07;;;;;;;11.97;41.26;101173.94;688209;28;1239;-86
2022/03/14 01:25:49;;;;;;;22.08;14.52;;;;;;;12.00;41.36;101181.00;691992;28;1228;-86
2022/03/14 01:26:09;;;;;;;22.83;15.07;;;;;;;11.99;41.33;101179.25;693701;28;1246;-85
2022/03/14 01:26:30;;;;;;;22.20;14.93;;;;;;;11.96;41.44;101180.03;693840;28;1288;-87
2022/03/14 01:26:51;;;;;;;23.58;15.27;;;;;;;11.93;41.52;101172.97;693499;28;1566;-87
2022/03/14 01:27:12;;;;;;;25.38;15.32;;;;;;;11.96;41.59;101173.91;690908;28;1386;-86
2022/03/14 01:27:32;;;;;;;24.63;15.90;;;;;;;11.96;41.59;101180.03;693810;28;1489;-87
2022/03/14 01:27:53;;;;;;;25.73;15.85;;;;;;;11.98;41.54;101183.56;693513;28;1202;-85
2022/03/14 01:28:14;;;;;;;23.65;15.73;;;;;;;11.97;41.30;101180.94;693739;28;1342;-86
2022/03/14 01:28:35;;;;;;;23.70;15.63;;;;;;;11.87;41.55;101164.09;696577;28;1301;-87
2022/03/14 01:28:56;;;;;;;23.47;15.80;;;;;;;11.94;41.33;101181.72;694920;28;1517;-86
2022/03/14 01:29:17;;;;;;;22.75;15.02;;;;;;;11.90;41.45;101172.00;690984;28;1063;-87
2022/03/14 01:29:38;;;;;;;23.70;14.93;;;;;;;11.96;41.28;101184.38;692611;28;1753;-87
2022/03/14 01:29:59;;;;;;;23.05;14.60;;;;;;;11.95;41.71;101185.22;695586;28;1645;-87
2022/03/14 01:30:21;;;;;;;25.15;14.85;;;;;;;11.85;41.50;101168.38;696314;28;1285;-87
2022/03/14 01:30:43;;;;;;;22.52;14.43;;;;;;;11.85;41.68;101173.63;688323;28;1347;-87
2022/03/14 01:31:04;;;;;;;22.10;14.80;;;;;;;11.93;41.67;101190.41;690509;28;1667;-86
2022/03/14 01:31:25;;;;;;;25.15;15.35;;;;;;;11.93;41.23;101187.81;693701;28;1310;-86
2022/03/14 01:31:46;;;;;;;24.48;14.95;;;;;;;11.84;41.22;101179.66;691019;28;1345;-87
2022/03/14 01:32:18;;;;;;;22.30;14.98;;;;;;;11.89;41.73;101178.97;690841;28;1208;-86
2022/03/14 01:32:38;;;;;;;20.25;14.95;;;;;;;11.88;41.53;101181.53;690453;28;1414;-86
2022/03/14 01:33:00;;;;;;;21.60;15.10;;;;;;;11.90;41.47;101191.22;692540;28;1570;-86
2022/03/14 01:33:20;;;;;;;21.35;14.20;;;;;;;11.91;41.47;101195.59;692429;28;1424;-87
2022/03/14 01:33:41;;;;;;;21.70;14.65;;;;;;;11.87;41.67;101187.63;691150;28;1149;-86
2022/03/14 01:34:02;;;;;;;21.60;15.05;;;;;;;11.89;41.35;101197.28;691542;28;1295;-86
2022/03/14 01:34:24;;;;;;;21.38;14.95;;;;;;;11.86;41.55;101186.72;685584;28;1241;-86
2022/03/14 01:34:45;;;;;;;22.75;14.98;;;;;;;11.90;41.30;101195.53;693651;28;1914;-86
2022/03/14 01:35:06;;;;;;;21.83;14.63;;;;;;;11.80;41.35;101183.91;695385;28;1211;-86
2022/03/14 01:35:27;;;;;;;23.00;15.07;;;;;;;11.83;41.56;101186.63;693737;28;1321;-86
2022/03/14 01:35:48;;;;;;;22.75;14.65;;;;;;;11.82;41.56;101190.09;693591;28;1281;-86
2022/03/14 01:36:10;;;;;;;22.92;14.30;;;;;;;11.90;41.56;101195.53;696540;28;1130;-87
2022/03/14 01:37:04;;;;;;;20.83;14.38;;;;;;;11.93;41.62;101208.72;696454;28;1277;-86
2022/03/14 01:37:25;;;;;;;20.42;14.77;;;;;;;11.87;42.07;101198.94;694001;28;1470;-87
2022/03/14 01:37:49;;;;;;;21.50;14.88;;;;;;;11.83;42.16;101196.19;693834;28;1048;-86
2022/03/14 01:38:11;;;;;;;22.95;15.07;;;;;;;11.94;42.18;101205.25;691345;28;1375;-86
2022/03/14 01:38:31;;;;;;;21.77;15.02;;;;;;;11.86;42.19;101191.94;693834;28;1252;-86
2022/03/14 01:38:52;;;;;;;21.65;15.10;;;;;;;11.91;42.45;101202.53;693667;28;1204;-87
2022/03/14 01:39:12;;;;;;;20.93;14.87;;;;;;;11.90;42.31;101198.16;688366;28;1263;-86
2022/03/14 01:39:33;;;;;;;20.73;14.23;;;;;;;11.97;42.46;101207.97;690815;28;1266;-86
2022/03/14 01:39:54;;;;;;;21.60;14.47;;;;;;;11.90;42.66;101195.53;692662;28;1310;-87
2022/03/14 01:40:18;;;;;;;22.00;14.75;;;;;;;11.90;42.36;101191.22;687169;28;1426;-87